Klawock Airport Klawock US
ICAO: PAKW
IATA:
Category: Medium
Scheduled Services:

Elevation: 80 ft
TransAlt. 18000 ft.

Airport Communications:
ASOS:135.45
ANCHORAGE CNTR:118.5
CTAF:120.9
KETCHIKAN RDO:122.25

PAKW Zoom In..

If you have problems with the map follow the link
https://www.worldairports.se/pages/airport.php?
ICAO=PAKW

Runways:

(A) RW 02 length 5000 ft width 100 ft
---- / hdg 19

(B) RW 20 length 5000 ft width 100 ft
---- / hdg 199

Location; PAKW
Day. 06 / Time. 00.53 Zulu
* Altimeter: 30.03
* Temperature: -01° c. -30.2°f.
* Wind from: 030° Speed 04 kn.
Dewpoint: -02° c.
Visibility: 10 Statute Miles.
Clouds: Clear (automated report).

PAKW 060053Z AUTO 03004KT 10SM CLR M01/M02 A3003 RMK SLP168 T10061017 TSNO VIA AUTODIAL


Wind From 030°
Speed 04 kn.

 
 
jpsmedia worldairports.se 2019   terms of use